EDDK Airport Information

Runway Information
Runway 06 Length 8067 ft width 148 ft Elevation 231 ft Threshold N/A Heading 64
Runway 24 Length 8067 ft Width 148 ft Elevation 272 ft Threshold N/A Heading 244
Runway 14R Length 6112 ft width 148 ft Elevation 221 ft Threshold N/A Heading 138
Runway 32L Length 6112 ft Width 148 ft Elevation 259 ft Threshold N/A Heading 318
Runway 14L Length 12516 ft width 197 ft Elevation 230 ft Threshold N/A Heading 138
Runway 32R Length 12516 ft Width 197 ft Elevation 302 ft Threshold N/A Heading 318
Airport Frequencies
Type ATIS Name ATIS Frequency 112.15 MHZ
Type CLD Name CLNC DEL Frequency 121.85 MHZ
Type DIR Name DIR Frequency 121.05 MHZ
Type GND Name GND Frequency 121.725 MHZ
Type INFO Name LANGEN INF Frequency 129.875 MHZ
Type MISC Name APRON Frequency 121.95 MHZ
Type POST Name MIL Frequency 136.25 MHZ
Type RDR Name LANGEN RAD Frequency 118.75 MHZ
Type TWR Name TWR Frequency 124.975 MHZ
Airport Navaids
Type VORTAC Name Cola Frequency 108800 KHZ
Type VOR-DME Name Koln/Bonn Frequency 112150 KHZ
Type NDB Name Koln/Bonn Frequency 365 KHZ
Type NDB Name Koln/Bonn Frequency 327 KHZ
Type NDB Name Koln/Bonn Frequency 301 KHZ
Airport Weather Information & NOTAM
ADDS - METARS form results

(2029 UTC 02 December 2022)
Data provider http://aviationweather.gov/metar/data/
 
METAR text: EDDK 022020Z AUTO 05006KT 9999 SCT027 02/M01 Q1021 NOSIG
Conditions at: EDDK (KOELN/BONN , DE) observed 2020 UTC 02 December 2022
Temperature: 2.0°C (36°F)
Dewpoint: -1.0°C (30°F) [RH = 80%]
Pressure (altimeter): 30.15 inches Hg (1021.0 mb)
Winds: from the NE (50 degrees) at 7 MPH (6 knots; 3.1 m/s)
Visibility: 6 or more miles (10+ km)
Ceiling: at least 12,000 feet AGL
Clouds: scattered clouds at 2700 feet AGL
Weather: no significant weather observed at this time

METAR text: EDDK 021950Z AUTO 06006KT 9999 FEW026 02/M01 Q1021 NOSIG
Conditions at: EDDK (KOELN/BONN , DE) observed 1950 UTC 02 December 2022
Temperature: 2.0°C (36°F)
Dewpoint: -1.0°C (30°F) [RH = 80%]
Pressure (altimeter): 30.15 inches Hg (1021.0 mb)
Winds: from the ENE (60 degrees) at 7 MPH (6 knots; 3.1 m/s)
Visibility: 6 or more miles (10+ km)
Ceiling: at least 12,000 feet AGL
Clouds: few clouds at 2600 feet AGL
Weather: no significant weather observed at this time

Forecast for: EDDK (KOELN/BONN , DE)
Text: TAF EDDK 021700Z 0218/0324 06006KT 9999 BKN015
Forecast period: 1800 UTC 02 December 2022 to 0000 UTC 04 December 2022
Forecast type: FROM: standard forecast or significant change
Winds: from the ENE (60 degrees) at 7 MPH (6 knots; 3.1 m/s)
Visibility: 6 or more miles (10+ km)
Ceiling: 1500 feet AGL
Clouds: broken clouds at 1500 feet AGL
Weather: no significant weather forecast for this period